createdAt,value
2017-10-01T00:01:40.730Z,71.60
2017-10-01T00:04:07.527Z,71.30
2017-10-01T00:06:33.590Z,71.20
2017-10-01T00:08:59.664Z,71.70
2017-10-01T00:11:25.743Z,71.20
2017-10-01T00:13:51.815Z,70.90
2017-10-01T00:16:17.866Z,70.80
2017-10-01T00:18:44.655Z,70.80
2017-10-01T00:21:10.723Z,70.60
2017-10-01T00:23:36.780Z,71.00
2017-10-01T00:26:02.817Z,70.90
2017-10-01T00:28:28.853Z,71.20
2017-10-01T00:30:54.955Z,71.40
2017-10-01T00:33:21.019Z,71.50
2017-10-01T00:35:47.066Z,71.40
2017-10-01T00:38:13.881Z,71.50
2017-10-01T00:40:39.934Z,71.40
2017-10-01T00:43:06.735Z,70.90
2017-10-01T00:45:33.517Z,71.80
2017-10-01T00:48:00.337Z,71.60
2017-10-01T00:50:26.432Z,71.60
2017-10-01T00:52:52.474Z,71.50
2017-10-01T00:55:18.522Z,71.50
2017-10-01T00:57:45.314Z,71.40
2017-10-01T01:00:11.363Z,71.30
2017-10-01T01:02:37.402Z,71.30
2017-10-01T01:05:03.441Z,71.70
2017-10-01T01:07:29.510Z,71.40
2017-10-01T01:09:55.543Z,71.30
2017-10-01T01:12:21.599Z,71.30
2017-10-01T01:14:48.390Z,71.30
2017-10-01T01:17:14.478Z,71.30
2017-10-01T01:19:41.269Z,71.30
2017-10-01T01:22:08.053Z,71.30
2017-10-01T01:24:34.842Z,71.70
2017-10-01T01:27:01.624Z,71.90
2017-10-01T01:29:28.409Z,71.30
2017-10-01T01:31:54.458Z,71.20
2017-10-01T01:34:20.502Z,71.20
2017-10-01T01:36:47.277Z,71.20
2017-10-01T01:39:13.323Z,71.20
2017-10-01T01:41:39.358Z,71.00
2017-10-01T01:44:05.399Z,70.90
2017-10-01T01:46:31.434Z,70.10
2017-10-01T01:48:58.218Z,70.70
2017-10-01T01:51:24.284Z,70.60
2017-10-01T01:53:50.332Z,70.30
2017-10-01T01:56:17.159Z,70.30
2017-10-01T01:58:43.976Z,70.90
2017-10-01T02:01:10.054Z,70.90
2017-10-01T02:03:36.118Z,71.00
2017-10-01T02:06:02.164Z,71.00
2017-10-01T02:08:28.194Z,71.00
2017-10-01T02:10:54.976Z,71.70
2017-10-01T02:13:20.994Z,71.50
2017-10-01T02:15:47.040Z,72.20
2017-10-01T02:18:13.095Z,71.50
2017-10-01T02:20:39.138Z,72.20
2017-10-01T02:23:05.173Z,70.70
2017-10-01T02:25:31.230Z,72.40
2017-10-01T02:27:57.263Z,75.20
2017-10-01T02:30:23.302Z,77.70
2017-10-01T02:32:50.086Z,75.30
2017-10-01T02:35:16.138Z,75.20
2017-10-01T02:37:42.187Z,73.00
2017-10-01T02:40:08.219Z,72.00
2017-10-01T02:42:35.002Z,74.90
2017-10-01T02:45:01.058Z,74.80
2017-10-01T02:47:27.107Z,73.70
2017-10-01T02:49:53.910Z,71.90
2017-10-01T02:52:19.941Z,71.90
2017-10-01T02:54:47.467Z,72.10
2017-10-01T02:57:13.490Z,71.90
2017-10-01T02:59:39.538Z,71.60
2017-10-01T03:02:05.580Z,71.10
2017-10-01T03:04:31.699Z,71.80
2017-10-01T03:06:57.739Z,71.50
2017-10-01T03:09:24.522Z,70.20
2017-10-01T03:11:50.585Z,70.20
2017-10-01T03:14:16.619Z,70.40
2017-10-01T03:16:42.646Z,71.50
2017-10-01T03:19:09.414Z,71.40
2017-10-01T03:21:35.470Z,71.40
2017-10-01T03:24:01.528Z,72.10
2017-10-01T03:26:28.333Z,72.20
2017-10-01T03:28:54.370Z,72.20
2017-10-01T03:31:20.405Z,72.70
2017-10-01T03:33:46.450Z,72.40
2017-10-01T03:36:13.280Z,71.10
2017-10-01T03:38:40.039Z,70.40
2017-10-01T03:41:06.810Z,70.10
2017-10-01T03:43:32.877Z,70.10
2017-10-01T03:45:58.925Z,70.30
2017-10-01T03:48:24.977Z,70.30
2017-10-01T03:50:51.028Z,69.80
2017-10-01T03:53:17.081Z,69.90
2017-10-01T03:55:43.864Z,70.60
2017-10-01T03:58:09.907Z,70.10
2017-10-01T04:00:35.954Z,69.10
2017-10-01T04:03:02.027Z,69.10
2017-10-01T04:05:28.082Z,68.70
2017-10-01T04:07:54.123Z,68.80
2017-10-01T04:10:20.912Z,69.50
2017-10-01T04:12:46.941Z,69.50
2017-10-01T04:15:12.965Z,69.50
2017-10-01T04:17:38.998Z,69.40
2017-10-01T04:20:05.054Z,68.90
2017-10-01T04:22:31.819Z,70.00
2017-10-01T04:24:57.887Z,70.00
2017-10-01T04:27:23.912Z,69.10
2017-10-01T04:29:49.980Z,68.60
2017-10-01T04:32:16.038Z,68.30
2017-10-01T04:34:42.817Z,68.20
2017-10-01T04:37:08.862Z,67.50
2017-10-01T04:39:34.911Z,68.20
2017-10-01T04:42:00.941Z,68.20
2017-10-01T04:44:26.982Z,69.30
2017-10-01T04:46:53.013Z,69.50
2017-10-01T04:49:19.055Z,69.40
2017-10-01T04:51:45.831Z,69.20
2017-10-01T04:54:11.888Z,69.10
2017-10-01T04:56:37.937Z,69.10
2017-10-01T04:59:03.962Z,68.90
2017-10-01T05:01:30.757Z,68.80
2017-10-01T05:03:56.806Z,68.80
2017-10-01T05:06:22.829Z,69.70
2017-10-01T05:08:48.870Z,69.80
2017-10-01T05:11:15.639Z,70.40
2017-10-01T05:13:41.678Z,70.30
2017-10-01T05:16:07.703Z,71.00
2017-10-01T05:18:33.737Z,71.30
2017-10-01T05:20:59.782Z,71.50
2017-10-01T05:23:25.942Z,72.50
2017-10-01T05:25:52.711Z,73.30
2017-10-01T05:28:18.743Z,73.30
2017-10-01T05:30:44.766Z,72.30
2017-10-01T05:33:10.866Z,72.00
2017-10-01T05:35:36.914Z,71.60
2017-10-01T05:38:02.962Z,71.60
2017-10-01T05:40:29.016Z,71.30
2017-10-01T05:42:55.838Z,70.90
2017-10-01T05:45:21.899Z,70.80
2017-10-01T05:47:47.933Z,71.10
2017-10-01T05:50:13.982Z,70.60
2017-10-01T05:52:40.016Z,70.70
2017-10-01T05:55:06.058Z,70.50
2017-10-01T05:57:32.834Z,70.00
2017-10-01T05:59:58.885Z,70.00
2017-10-01T06:02:24.942Z,69.40
2017-10-01T06:17:51.101Z,66.90
2017-10-01T06:20:17.325Z,66.10
2017-10-01T06:22:43.381Z,65.90
2017-10-01T06:25:09.422Z,66.90
2017-10-01T06:27:36.225Z,67.10
2017-10-01T06:30:02.312Z,67.00
2017-10-01T06:32:28.359Z,67.80
2017-10-01T06:34:54.447Z,67.00
2017-10-01T06:37:20.491Z,66.10
2017-10-01T06:39:46.521Z,68.00
2017-10-01T06:42:12.586Z,68.90
2017-10-01T06:44:38.624Z,69.00
2017-10-01T06:47:05.400Z,68.30
2017-10-01T06:49:31.432Z,68.20
2017-10-01T06:51:57.470Z,67.60
2017-10-01T06:54:23.513Z,67.00
2017-10-01T06:56:49.538Z,67.60
2017-10-01T06:59:15.571Z,67.30
2017-10-01T07:01:42.370Z,65.80
2017-10-01T07:04:08.444Z,65.70
2017-10-01T07:06:41.223Z,67.50
2017-10-01T07:09:08.071Z,66.00
2017-10-01T07:11:34.144Z,65.20
2017-10-01T07:14:00.230Z,65.80
2017-10-01T07:16:26.260Z,65.90
2017-10-01T07:18:52.306Z,66.10
2017-10-01T07:21:18.355Z,64.30
2017-10-01T07:23:44.393Z,64.80
2017-10-01T07:26:11.173Z,64.40
2017-10-01T07:28:37.246Z,64.40
2017-10-01T07:31:03.270Z,60.90
2017-10-01T07:33:30.067Z,58.10
2017-10-01T07:35:56.130Z,58.10
2017-10-01T07:38:22.171Z,57.00
2017-10-01T07:40:48.961Z,56.00
2017-10-01T07:43:14.995Z,55.90
2017-10-01T07:45:41.057Z,52.50
2017-10-01T07:48:07.839Z,47.90
2017-10-01T07:50:33.930Z,47.90
2017-10-01T07:52:59.955Z,48.70
2017-10-01T07:55:26.123Z,52.70
2017-10-01T07:57:52.161Z,52.10
2017-10-01T08:00:18.466Z,64.30
2017-10-01T08:02:44.519Z,47.80
2017-10-01T08:05:10.662Z,47.80
2017-10-01T08:07:37.494Z,46.00
2017-10-01T08:10:04.467Z,47.20
2017-10-01T08:12:30.621Z,47.00
2017-10-01T08:14:56.686Z,49.20
2017-10-01T08:17:23.470Z,48.10
2017-10-01T08:19:49.654Z,48.00
2017-10-01T08:22:16.457Z,49.00
2017-10-01T08:24:42.555Z,48.70
2017-10-01T08:27:08.611Z,49.90
2017-10-01T08:29:34.676Z,49.90
2017-10-01T08:32:02.113Z,50.10
2017-10-01T08:34:28.298Z,50.00
2017-10-01T08:36:54.403Z,55.00
2017-10-01T08:39:20.458Z,52.50
2017-10-01T08:41:46.576Z,47.70
2017-10-01T08:44:12.763Z,48.70
2017-10-01T08:46:38.881Z,54.30
2017-10-01T08:49:05.070Z,49.20
2017-10-01T08:51:31.219Z,42.20
2017-10-01T08:53:58.106Z,45.60
2017-10-01T08:56:24.173Z,45.50
2017-10-01T08:58:50.284Z,44.30
2017-10-01T09:01:16.331Z,50.10
2017-10-01T09:03:43.194Z,45.70
2017-10-01T09:06:09.332Z,45.60
2017-10-01T09:08:35.471Z,47.60
2017-10-01T09:11:01.551Z,43.80
2017-10-01T09:13:28.422Z,48.10
2017-10-01T09:15:54.526Z,47.90
2017-10-01T09:18:20.650Z,43.00
2017-10-01T09:20:46.719Z,44.60
2017-10-01T09:23:12.802Z,46.50
2017-10-01T09:25:38.877Z,45.80
2017-10-01T09:28:04.933Z,42.10
2017-10-01T09:30:31.758Z,45.20
2017-10-01T09:32:57.791Z,44.80
2017-10-01T09:35:24.679Z,41.20
2017-10-01T09:37:50.715Z,41.20
2017-10-01T09:40:16.770Z,40.40
2017-10-01T09:42:42.815Z,41.40
2017-10-01T09:45:09.686Z,37.00
2017-10-01T09:47:35.783Z,37.00
2017-10-01T09:50:01.840Z,37.40
2017-10-01T09:52:27.918Z,38.40
2017-10-01T09:54:54.735Z,37.50
2017-10-01T09:57:20.788Z,37.30
2017-10-01T09:59:47.635Z,41.40
2017-10-01T10:02:13.698Z,41.30
2017-10-01T10:04:39.811Z,39.50
2017-10-01T10:07:05.857Z,40.40
2017-10-01T10:09:31.906Z,39.40
2017-10-01T10:11:57.931Z,38.40
2017-10-01T10:14:24.047Z,34.10
2017-10-01T10:16:50.105Z,35.10
2017-10-01T10:19:16.129Z,36.10
2017-10-01T10:21:42.602Z,36.60
2017-10-01T10:24:09.043Z,36.10
2017-10-01T10:26:35.078Z,39.30
2017-10-01T10:29:01.124Z,39.00
2017-10-01T10:31:27.930Z,34.30
2017-10-01T10:33:53.992Z,34.30
2017-10-01T10:36:20.051Z,37.40
2017-10-01T10:38:46.112Z,35.60
2017-10-01T10:41:12.214Z,36.80
2017-10-01T10:43:38.263Z,35.50
2017-10-01T10:46:05.043Z,34.50
2017-10-01T10:48:31.074Z,34.50
2017-10-01T10:50:57.148Z,32.40
2017-10-01T10:53:23.938Z,34.20
2017-10-01T10:55:49.966Z,33.90
2017-10-01T10:58:15.999Z,36.50
2017-10-01T11:00:42.056Z,35.70
2017-10-01T11:03:08.825Z,36.80
2017-10-01T11:05:34.861Z,36.60
2017-10-01T11:08:00.906Z,37.40
2017-10-01T11:10:26.964Z,37.50
2017-10-01T11:12:53.737Z,36.80
2017-10-01T11:15:19.798Z,36.30
2017-10-01T11:17:45.832Z,36.90
2017-10-01T11:20:11.887Z,36.60
2017-10-01T11:22:37.910Z,36.30
2017-10-01T11:25:04.689Z,33.90
2017-10-01T11:27:30.718Z,33.70
2017-10-01T11:29:56.746Z,31.60
2017-10-01T11:32:22.772Z,31.80
2017-10-01T11:34:48.826Z,31.10
2017-10-01T11:37:15.613Z,33.80
2017-10-01T11:39:41.683Z,33.80
2017-10-01T11:42:07.722Z,33.50
2017-10-01T11:44:34.546Z,35.30
2017-10-01T11:47:01.347Z,33.40
2017-10-01T11:49:27.404Z,33.40
2017-10-01T11:51:53.475Z,32.50
2017-10-01T11:54:19.525Z,32.40
2017-10-01T11:56:45.546Z,31.70
2017-10-01T11:59:11.602Z,32.60
2017-10-01T12:01:37.661Z,33.50
2017-10-01T12:04:03.723Z,31.70
2017-10-01T12:06:29.774Z,31.60
2017-10-01T12:08:56.627Z,32.60
2017-10-01T12:11:22.695Z,32.60
2017-10-01T12:13:48.748Z,31.70
2017-10-01T12:16:14.786Z,31.90
2017-10-01T12:18:41.586Z,31.30
2017-10-01T12:21:07.641Z,31.30
2017-10-01T12:23:33.728Z,32.00
2017-10-01T12:25:59.779Z,32.20
2017-10-01T12:28:25.937Z,31.00
2017-10-01T12:30:52.029Z,30.50
2017-10-01T12:33:18.065Z,32.90
2017-10-01T12:35:45.247Z,29.00
2017-10-01T12:38:11.325Z,29.10
2017-10-01T12:40:38.126Z,30.10
2017-10-01T12:43:04.254Z,30.00
2017-10-01T12:45:30.318Z,29.40
2017-10-01T12:47:57.089Z,29.30
2017-10-01T12:50:23.146Z,29.30
2017-10-01T12:52:50.669Z,30.90
2017-10-01T12:55:16.742Z,31.20
2017-10-01T12:57:42.806Z,29.20
2017-10-01T13:00:08.838Z,29.50
2017-10-01T13:02:34.864Z,29.80
2017-10-01T13:05:02.037Z,29.90
2017-10-01T13:07:28.157Z,31.10
2017-10-01T13:09:54.206Z,30.10
2017-10-01T13:12:20.272Z,32.90
2017-10-01T13:14:46.315Z,32.20
2017-10-01T13:17:13.206Z,33.00
2017-10-01T13:19:39.254Z,32.20
2017-10-01T13:22:06.041Z,33.30
2017-10-01T13:24:32.061Z,33.30
2017-10-01T13:26:58.134Z,33.70
2017-10-01T13:29:24.925Z,34.30
2017-10-01T13:31:50.969Z,34.20
2017-10-01T13:34:17.001Z,30.10
2017-10-01T13:36:43.047Z,30.60
2017-10-01T13:39:09.817Z,32.00
2017-10-01T13:41:35.860Z,31.90
2017-10-01T13:44:01.909Z,32.40
2017-10-01T13:46:28.754Z,35.10
2017-10-01T13:48:55.533Z,33.60
2017-10-01T13:51:21.571Z,33.50
2017-10-01T13:53:48.351Z,35.20
2017-10-01T13:56:14.374Z,35.20
2017-10-01T13:58:40.411Z,34.90
2017-10-01T14:01:07.446Z,34.20
2017-10-01T14:03:33.665Z,34.20
2017-10-01T14:05:59.967Z,33.80
2017-10-01T14:08:26.205Z,37.20
2017-10-01T14:10:52.432Z,34.80
2017-10-01T14:13:18.678Z,35.00
2017-10-01T14:15:44.915Z,36.40
2017-10-01T14:18:11.235Z,35.90
2017-10-01T14:20:37.475Z,36.00
2017-10-01T14:23:03.700Z,36.10
2017-10-01T14:25:29.913Z,37.30
2017-10-01T14:27:56.254Z,38.10
2017-10-01T14:30:23.303Z,37.80
2017-10-01T14:32:49.618Z,37.10
2017-10-01T14:35:15.855Z,37.30
2017-10-01T14:37:42.081Z,38.30
2017-10-01T14:40:08.310Z,39.90
2017-10-01T14:42:34.534Z,38.80
2017-10-01T14:45:01.502Z,39.00
2017-10-01T14:47:28.479Z,40.70
2017-10-01T14:49:54.686Z,41.10
2017-10-01T14:52:20.913Z,37.10
2017-10-01T14:54:47.866Z,37.20
2017-10-01T14:57:14.824Z,37.30
2017-10-01T14:59:41.082Z,37.30
2017-10-01T15:02:07.304Z,38.90
2017-10-01T15:04:33.536Z,39.30
2017-10-01T15:06:59.757Z,38.90
2017-10-01T15:09:26.011Z,38.50
2017-10-01T15:11:52.279Z,38.50
2017-10-01T15:14:18.595Z,39.10
2017-10-01T15:16:45.604Z,39.70
2017-10-01T15:19:11.939Z,39.70
2017-10-01T15:21:38.309Z,39.50
2017-10-01T15:24:04.627Z,39.00
2017-10-01T15:26:30.926Z,38.90
2017-10-01T15:28:57.274Z,39.30
2017-10-01T15:31:24.326Z,39.40
2017-10-01T15:33:51.290Z,41.00
2017-10-01T15:36:17.561Z,41.00
2017-10-01T15:38:43.812Z,40.90
2017-10-01T15:41:10.831Z,40.60
2017-10-01T15:43:37.074Z,40.50
2017-10-01T15:46:03.443Z,41.10
2017-10-01T15:48:29.705Z,41.60
2017-10-01T15:50:55.952Z,42.10
2017-10-01T15:53:22.307Z,41.70
2017-10-01T15:55:49.279Z,41.50
2017-10-01T15:58:15.548Z,41.40
2017-10-01T16:00:41.780Z,41.40
2017-10-01T16:03:08.019Z,43.40
2017-10-01T16:05:34.243Z,44.10
2017-10-01T16:08:00.487Z,43.40
2017-10-01T16:10:27.520Z,43.80
2017-10-01T16:12:54.527Z,44.30
2017-10-01T16:15:20.759Z,44.20
2017-10-01T16:17:47.002Z,44.10
2017-10-01T16:20:13.245Z,45.10
2017-10-01T16:22:40.223Z,45.10
2017-10-01T16:25:06.550Z,45.00
2017-10-01T16:27:32.850Z,45.40
2017-10-01T16:29:59.850Z,46.20
2017-10-01T16:32:26.066Z,46.20
2017-10-01T16:34:52.290Z,46.70
2017-10-01T16:37:18.569Z,45.90
2017-10-01T16:39:45.558Z,46.70
2017-10-01T16:42:11.794Z,46.60
2017-10-01T16:44:38.086Z,47.10
2017-10-01T16:47:05.058Z,47.60
2017-10-01T16:49:31.282Z,47.60
2017-10-01T16:51:57.510Z,47.00
2017-10-01T16:54:23.791Z,48.00
2017-10-01T16:56:50.038Z,47.60
2017-10-01T16:59:16.463Z,48.10
2017-10-01T17:01:43.539Z,48.60
2017-10-01T17:04:09.826Z,48.80
2017-10-01T17:06:36.157Z,48.40
2017-10-01T17:09:02.379Z,48.60
2017-10-01T17:11:29.427Z,49.60
2017-10-01T17:13:55.736Z,49.60
2017-10-01T17:16:21.970Z,49.70
2017-10-01T17:18:48.194Z,50.60
2017-10-01T17:21:14.422Z,51.00
2017-10-01T17:23:40.682Z,50.20
2017-10-01T17:26:07.674Z,51.10
2017-10-01T17:28:33.942Z,51.10
2017-10-01T17:31:01.137Z,50.50
2017-10-01T17:33:27.438Z,50.40
2017-10-01T17:35:54.481Z,50.20
2017-10-01T17:38:21.456Z,50.20
2017-10-01T17:40:47.503Z,50.10
2017-10-01T17:43:13.742Z,50.70
2017-10-01T17:45:39.991Z,50.10
2017-10-01T17:48:07.073Z,51.20
2017-10-01T17:50:34.393Z,51.10
2017-10-01T17:53:01.778Z,51.00
2017-10-01T17:55:28.075Z,50.90
2017-10-01T17:57:55.106Z,51.00
2017-10-01T18:00:21.999Z,51.00
2017-10-01T18:02:48.876Z,50.60
2017-10-01T18:05:15.303Z,50.50
2017-10-01T18:07:42.187Z,50.50
2017-10-01T18:10:08.713Z,50.50
2017-10-01T18:12:35.210Z,51.90
2017-10-01T18:15:02.489Z,52.20
2017-10-01T18:17:28.934Z,52.20
2017-10-01T18:19:55.004Z,51.40
2017-10-01T18:22:21.058Z,51.80
2017-10-01T18:24:47.942Z,52.00
2017-10-01T18:33:15.149Z,51.00
2017-10-01T18:35:41.419Z,50.90
2017-10-01T18:38:07.718Z,51.10
2017-10-01T18:40:34.090Z,51.50
2017-10-01T18:43:00.374Z,51.50
2017-10-01T18:45:26.723Z,52.10
2017-10-01T18:47:53.397Z,52.20
2017-10-01T18:50:20.582Z,52.30
2017-10-01T18:52:46.987Z,52.20
2017-10-01T18:55:13.315Z,52.30
2017-10-01T18:57:39.699Z,52.60
2017-10-01T19:00:06.897Z,52.90
2017-10-01T19:02:33.187Z,52.00
2017-10-01T19:04:59.621Z,52.20
2017-10-01T19:07:26.962Z,52.60
2017-10-01T19:09:53.246Z,52.50
2017-10-01T19:12:19.562Z,52.80
2017-10-01T19:14:46.605Z,53.40
2017-10-01T19:17:13.655Z,52.90
2017-10-01T19:19:39.922Z,52.90
2017-10-01T19:22:06.277Z,52.40
2017-10-01T19:24:33.344Z,53.00
2017-10-01T19:26:59.634Z,52.90
2017-10-01T19:29:25.933Z,53.00
2017-10-01T19:31:52.182Z,52.70
2017-10-01T19:34:18.438Z,52.40
2017-10-01T19:36:44.779Z,52.30
2017-10-01T19:39:11.154Z,52.40
2017-10-01T19:41:37.406Z,51.90
2017-10-01T19:44:03.680Z,52.60
2017-10-01T19:46:30.035Z,51.60
2017-10-01T19:48:56.387Z,51.80
2017-10-01T19:51:22.767Z,51.70
2017-10-01T19:53:49.134Z,51.70
2017-10-01T19:56:16.186Z,51.50
2017-10-01T19:58:43.273Z,51.20
2017-10-01T20:01:09.527Z,51.10
2017-10-01T20:03:36.583Z,51.90
2017-10-01T20:06:03.010Z,51.70
2017-10-01T20:08:30.166Z,51.70
2017-10-01T20:10:56.487Z,51.60
2017-10-01T20:13:23.561Z,51.30
2017-10-01T20:15:50.683Z,51.20
2017-10-01T20:18:18.175Z,51.40
2017-10-01T20:20:45.215Z,51.80
2017-10-01T20:23:11.585Z,51.80
2017-10-01T20:25:38.367Z,51.00
2017-10-01T20:28:04.692Z,51.50
2017-10-01T20:30:31.000Z,51.00
2017-10-01T20:32:57.406Z,51.40
2017-10-01T20:35:23.682Z,50.60
2017-10-01T20:37:49.931Z,50.80
2017-10-01T20:40:16.049Z,51.80
2017-10-01T20:42:42.231Z,52.30
2017-10-01T20:45:08.406Z,52.00
2017-10-01T20:47:35.223Z,51.30
2017-10-01T20:50:01.369Z,51.20
2017-10-01T20:52:27.729Z,51.30
2017-10-01T20:54:53.870Z,51.60
2017-10-01T20:57:21.577Z,51.10
2017-10-01T20:59:47.675Z,51.00
2017-10-01T21:02:14.622Z,51.20
2017-10-01T21:04:41.540Z,50.30
2017-10-01T21:07:08.041Z,50.30
2017-10-01T21:09:34.973Z,50.30
2017-10-01T21:12:01.170Z,50.10
2017-10-01T21:14:27.629Z,49.10
2017-10-01T21:16:53.711Z,49.20
2017-10-01T21:19:19.838Z,49.80
2017-10-01T21:21:46.775Z,49.20
2017-10-01T21:24:12.980Z,49.20
2017-10-01T21:26:39.106Z,49.10
2017-10-01T21:29:05.234Z,49.40
2017-10-01T21:31:31.316Z,49.60
2017-10-01T21:33:58.171Z,49.30
2017-10-01T21:36:24.385Z,49.20
2017-10-01T21:38:50.521Z,50.10
2017-10-01T21:41:16.613Z,49.30
2017-10-01T21:43:42.669Z,50.40
2017-10-01T21:46:08.723Z,50.10
2017-10-01T21:48:34.823Z,50.00
2017-10-01T21:51:00.906Z,49.60
2017-10-01T21:53:27.293Z,50.50
2017-10-01T21:55:53.342Z,49.80
2017-10-01T21:58:20.246Z,49.80
2017-10-01T22:00:47.177Z,48.90
2017-10-01T22:03:13.278Z,48.80
2017-10-01T22:05:39.370Z,49.40
2017-10-01T22:08:06.239Z,49.60
2017-10-01T22:10:32.318Z,49.60
2017-10-01T22:12:58.370Z,49.60
2017-10-01T22:15:24.425Z,50.20
2017-10-01T22:17:50.483Z,49.80
2017-10-01T22:20:16.604Z,49.70
2017-10-01T22:22:42.679Z,49.80
2017-10-01T22:25:08.814Z,50.10
2017-10-01T22:27:34.976Z,50.10
2017-10-01T22:30:01.075Z,49.90
2017-10-01T22:32:27.427Z,49.70
2017-10-01T22:34:54.238Z,49.80
2017-10-01T22:37:20.450Z,49.80
2017-10-01T22:39:46.548Z,49.40
2017-10-01T22:42:12.786Z,49.00
2017-10-01T22:44:38.866Z,49.00
2017-10-01T22:47:04.930Z,49.30
2017-10-01T22:49:31.022Z,49.50
2017-10-01T22:51:57.106Z,49.70
2017-10-01T22:54:23.217Z,49.70
2017-10-01T22:56:50.020Z,50.20
2017-10-01T22:59:16.125Z,50.00
2017-10-01T23:01:42.217Z,49.50
2017-10-01T23:04:08.455Z,49.80
2017-10-01T23:06:34.537Z,49.30
2017-10-01T23:09:00.674Z,49.20
2017-10-01T23:11:26.781Z,50.00
2017-10-01T23:13:53.574Z,50.10
2017-10-01T23:16:19.671Z,50.00
2017-10-01T23:18:45.887Z,49.50
2017-10-01T23:21:11.959Z,49.70
2017-10-01T23:23:38.048Z,49.60
2017-10-01T23:26:04.120Z,49.60
2017-10-01T23:28:30.212Z,48.70
2017-10-01T23:30:56.275Z,49.00
2017-10-01T23:33:22.327Z,49.30
2017-10-01T23:35:49.178Z,49.10
2017-10-01T23:38:15.329Z,49.10
2017-10-01T23:40:41.400Z,48.90
2017-10-01T23:43:08.228Z,49.20
2017-10-01T23:45:34.300Z,49.10
2017-10-01T23:48:00.362Z,49.30
2017-10-01T23:50:26.419Z,50.00
2017-10-01T23:52:53.227Z,49.50
2017-10-01T23:55:19.286Z,49.40
2017-10-01T23:57:45.486Z,49.90
